Tiempo atmosférico en la estación meteorológica de Brozas , Cáceres (411 m.)



Fecha
DESCASC
Temp. máxima en grados centígrados (hora)
DESCASC
Temp. mínima en grados centígrados (hora)
DESCASC
Temp. media en grados centígrados
DESCASC
Racha de viento máxima en m/sg (hora)
DESCASC
Velocidad máxima media en intervalos de 10 minutos(hora)
DESCASC
Precipitaciones diarias en mm
DESCASC
Precipitaciones de 00:00 a 06:00 en mm
DESCASC
Precipitaciones de 06:00 a 12:00 en mm
DESCASC
Precipitaciones de 12:00 a 18:00 en mm
DESCASC
Precipitaciones de 18:00 a 24:00 en mm
DESCASC
19-01-2020 10.9 (15:10) 4.2 (23:50) 7.5 24.72 (14:20) 16.94 (14:20) 0 0 0 0 0
18-01-2020 14.2 (16:00) 7.9 (23:59) 11 12.5 (19:20) 9.17 (19:20) 11.2 1.8 9.2 0.2 0
17-01-2020 13.4 (16:30) 6 (07:00) 9.7 6.11 (12:30) 4.72 (12:20) 0.4 0.2 0.2 0 0
16-01-2020 13.9 (15:50) 8 (00:00) 10.9 12.78 (13:10) 10.28 (13:10) 0 0 0 0 0
15-01-2020 13.9 (16:50) 8 (00:00) 10.9 13.89 (03:20) 8.61 (03:20) 1.8 0 1 0.8 0
14-01-2020 10.5 (14:50) 4.2 (00:00) 7.3 12.22 (21:40) 9.17 (21:40) 0.2 0 0 0.2 0
13-01-2020 11.4 (16:00) 3.6 (00:00) 7.5 3.89 (05:00) 2.78 (05:00) 0 0 0 0 0
12-01-2020 12.2 (16:40) 2.3 (00:00) 7.2 4.17 (04:20) 3.89 (04:20) 0 0 0 0 0
11-01-2020 11.3 (16:00) 2.3 (00:00) 6.8 8.61 (11:20) 6.11 (11:20) 0 0 0 0 0
10-01-2020 11.8 (15:20) 3.3 (00:00) 7.6 11.11 (09:30) 8.33 (06:50) 0 0 0 0 0
09-01-2020 12.8 (15:30) 1.2 (00:00) 7 7.5 (21:30) 5.56 (21:30) 0 0 0 0 0
08-01-2020 11.9 (15:30) 1.8 (00:00) 6.8 3.61 (09:00) 3.33 (09:00) 0 0 0 0 0
07-01-2020 13 (15:50) 3.5 (00:00) 8.3 4.44 (10:00) 3.61 (04:20) 0 0 0 0 0
06-01-2020 12.5 (14:40) 2 (00:00) 7.3 4.72 (01:00) 4.17 (01:00) 0 0 0 0 0
05-01-2020 12.4 (15:50) 1.9 (00:00) 7.1 7.22 (00:10) 5.83 (00:10) 0 0 0 0 0
04-01-2020 11 (15:30) 0.2 (00:00) 5.6 8.89 (12:40) 6.39 (13:10) 0 0 0 0 0
03-01-2020 12.2 (16:10) 4.7 (00:00) 8.4 6.39 (19:30) 5 (19:30) 0 0 0 0 0
02-01-2020 10.6 (15:50) 1.3 (00:00) 6 4.17 (08:40) 3.61 (08:20) 0 0 0 0 0
01-01-2020 11.6 (15:30) 1.3 (00:00) 6.5 4.17 (02:20) 3.89 (02:20) 0 0 0 0 0
31-12-2019 12.5 (16:20) 3.1 (00:00) 7.8 5.28 (05:30) 4.17 (05:10) 0 0 0 0 0
30-12-2019 13.2 (15:10) 4.1 (00:00) 8.6 6.11 (08:20) 5 (08:10) 0 0 0 0 0
29-12-2019 15.2 (15:50) 5.3 (00:00) 10.3 7.78 (03:00) 6.67 (03:00) 0 0 0 0 0
28-12-2019 15.6 (15:20) 5.8 (00:00) 10.7 10.56 (10:10) 7.78 (09:40) 0 0 0 0 0
27-12-2019 14.5 (14:50) 7.3 (00:00) 10.9 9.17 (02:40) 7.78 (02:50) 0 0 0 0 0
26-12-2019 14.9 (15:50) 6.9 (00:00) 10.9 7.22 (21:40) 5.56 (21:40) 0 0 0 0 0
25-12-2019 17.3 (14:30) 8.5 (00:00) 12.9 7.5 (00:40) 6.11 (00:40) 0 0 0 0 0
24-12-2019 14.9 (16:00) 5.9 (00:00) 10.4 9.17 (20:00) 6.67 (20:00) 0.2 0 0.2 0 0
23-12-2019 12.6 (17:10) 6.4 (00:00) 9.5 4.72 (00:10) 3.89 (00:10) 0 0 0 0 0
22-12-2019 14.9 (14:50) 8.7 (00:00) 11.8 16.67 (00:20) 12.5 (00:20) 0 0 0 0 0

Gráficas

Temp. máximas Temp. mínimas Temp. medias Precipitaciones Rachas de viento máximas Velocidades máximas media en intervalos de 10 minutos

Datos horarios

Fecha y hora oficial Temperatura (ºC) Velocidad del viento (km/h) Dirección del viento Racha (km/h) Dirección de racha Precipitación (mm) Presión (hPa) Tendencia (hPa) Humedad (%)
2020-01-20 23:00:00 3.7 29 Nordeste 56 Nordeste 0 -- -- 66
2020-01-20 22:00:00 4.3 40 Nordeste 52 Nordeste 0 -- -- 64
2020-01-20 21:00:00 4.8 39 Nordeste 51 Nordeste 0 -- -- 61
2020-01-20 20:00:00 4.9 24 Nordeste 46 Nordeste 0 -- -- 60
2020-01-20 19:00:00 5.3 33 Nordeste 42 Nordeste 0 -- -- 60
2020-01-20 18:00:00 6.1 21 Nordeste 52 Este 0 -- -- 61
2020-01-20 17:00:00 6.2 34 Nordeste 53 Nordeste 0 -- -- 58
2020-01-20 16:00:00 7 31 Nordeste 54 Nordeste 0 -- -- 54
2020-01-20 15:00:00 6 37 Nordeste 58 Nordeste 0 -- -- 54
2020-01-20 14:00:00 5.7 39 Nordeste 62 Nordeste 0 -- -- 53
2020-01-20 13:00:00 6.4 40 Nordeste 64 Nordeste 0 -- -- 54
2020-01-20 12:00:00 4.5 39 Nordeste 59 Nordeste 0 -- -- 58
2020-01-20 11:00:00 3.6 35 Nordeste 55 Nordeste 0 -- -- 61
2020-01-20 10:00:00 2.9 37 Nordeste 52 Nordeste 0 -- -- 61
2020-01-20 09:00:00 2.3 34 Nordeste 51 Nordeste 0 -- -- 62
2020-01-20 08:00:00 2.5 38 Nordeste 63 Nordeste 0 -- -- 60
2020-01-20 07:00:00 2.6 44 Nordeste 63 Nordeste 0 -- -- 60
2020-01-20 06:00:00 3 34 Nordeste 59 Nordeste 0 -- -- 59
2020-01-20 05:00:00 3.6 37 Nordeste 60 Nordeste 0 -- -- 57
2020-01-20 04:00:00 3.8 42 Nordeste 58 Nordeste 0 -- -- 57
2020-01-20 03:00:00 3.5 36 Nordeste 56 Nordeste 0 -- -- 57
2020-01-20 02:00:00 3.6 41 Nordeste 61 Nordeste 0 -- -- 59
2020-01-20 01:00:00 3.9 39 Nordeste 65 Nordeste 0 -- -- 57
2020-01-20 00:00:00 4.2 43 Nordeste 74 Nordeste 0 -- -- 56
2020-01-19 23:00:00 4.5 50 Nordeste 84 Nordeste 0 -- -- 54
2020-01-19 22:00:00 5 54 Nordeste 89 Nordeste 0 -- -- 53
2020-01-19 21:00:00 5.9 50 Nordeste 75 Nordeste 0 -- -- 50
2020-01-19 20:00:00 6.9 50 Nordeste 79 Nordeste 0 -- -- 50
2020-01-19 19:00:00 7.9 42 Nordeste 77 Nordeste 0 -- -- 50
2020-01-19 18:00:00 9.2 40 Nordeste 71 Nordeste 0 -- -- 46
2020-01-19 17:00:00 10.2 45 Nordeste 72 Norte 0 -- -- 45
2020-01-19 16:00:00 10.6 54 Nordeste 81 Nordeste 0 -- -- 45
2020-01-19 15:00:00 10.7 59 Norte 89 Norte 0 -- -- 46
2020-01-19 14:00:00 10.6 61 Norte 86 Norte 0 -- -- 51
2020-01-19 13:00:00 10.4 45 Nordeste 77 Nordeste 0 -- -- 61
2020-01-19 12:00:00 9.9 30 Norte 45 Norte 0 -- -- 77
2020-01-19 11:00:00 8.3 25 Norte 34 Norte 0 -- -- 82
2020-01-19 10:00:00 6.7 19 Norte 24 Norte 0 -- -- 90
2020-01-19 09:00:00 4.8 18 Norte 20 Norte 0 -- -- 94
2020-01-19 08:00:00 5.4 16 Norte 19 Norte 0 -- -- 93
2020-01-19 07:00:00 5.8 15 Norte 19 Norte 0 -- -- 97
2020-01-19 06:00:00 5.8 8 Norte 17 Noroeste 0 -- -- 97
2020-01-19 05:00:00 6.8 12 Noroeste 18 Noroeste 0 -- -- 97
2020-01-19 04:00:00 6.4 9 Noroeste 22 Oeste 0 -- -- 95
2020-01-19 03:00:00 6.4 19 Oeste 23 Oeste 0 -- -- 93
2020-01-19 02:00:00 6.4 13 Noroeste 18 Oeste 0 -- -- 90
2020-01-19 01:00:00 7.2 13 Noroeste 26 Oeste 0 -- -- 89
2020-01-19 00:00:00 7.9 17 Oeste 39 Oeste 0 -- -- 86
2020-01-18 23:00:00 8.8 24 Oeste 37 Oeste 0 -- -- 91
2020-01-18 22:00:00 10 25 Oeste 42 Oeste 0 -- -- 93
2020-01-18 21:00:00 10.2 28 Oeste 39 Oeste 0 -- -- 90
2020-01-18 20:00:00 10.8 27 Oeste 45 Oeste 0 -- -- 86
2020-01-18 19:00:00 12.1 17 Oeste 28 Oeste 0 -- -- 92
2020-01-18 18:00:00 12.9 21 Oeste 28 Oeste 0 -- -- 90
2020-01-18 17:00:00 13.4 27 Oeste 34 Oeste 0 -- -- 91
2020-01-18 16:00:00 14.2 23 Oeste 31 Oeste 0 -- -- 94
2020-01-18 15:00:00 13.1 14 Oeste 20 Oeste 0.2 -- -- 99
2020-01-18 14:00:00 12.3 10 Sur 17 Sur 0 -- -- 99
2020-01-18 13:00:00 11 9 Sur 19 Sudeste 0 -- -- 100
2020-01-18 12:00:00 10 14 Sudeste 26 Sudeste 0.4 -- -- 100
2020-01-18 11:00:00 9.2 15 Sudeste 32 Sudeste 0.2 -- -- 100
2020-01-18 10:00:00 9.1 21 Sudeste 30 Sudeste 1.6 -- -- 100
2020-01-18 09:00:00 9 21 Sudeste 30 Sudeste 2.4 -- -- 100
2020-01-18 08:00:00 8.8 17 Sudeste 24 Sudeste 3.6 -- -- 99
2020-01-18 07:00:00 9.3 12 Sudeste 28 Sudeste 1 -- -- 96
2020-01-18 06:00:00 9 12 Sudeste 21 Sudeste 0.4 -- -- 97
2020-01-18 05:00:00 9 14 Sudeste 21 Sudeste 0.6 -- -- 97
2020-01-18 04:00:00 9.1 11 Sudeste 17 Sudeste 0.8 -- -- 97
2020-01-18 03:00:00 9.1 9 Sudeste 14 Sudeste 0 -- -- 95
2020-01-18 02:00:00 9 8 Sudeste 12 Sudeste 0 -- -- 92
2020-01-18 01:00:00 9 8 Sur 9 Sur 0 -- -- 87
2020-01-18 00:00:00 9.1 5 Sur 8 Sur 0 -- -- 84
2020-01-17 23:00:00 9.1 5 Sudeste 7 Sur 0 -- -- 80
2020-01-17 22:00:00 9.4 5 Sur 8 Sudeste 0 -- -- 76
2020-01-17 21:00:00 10.1 5 Sur 6 Sur 0 -- -- 72
2020-01-17 20:00:00 10.2 2 Sur 6 Sur 0 -- -- 71
2020-01-17 19:00:00 10.6 0 Calma 4 Sudoeste 0 -- -- 68
2020-01-17 18:00:00 11.3 4 Oeste 10 Sudoeste 0 -- -- 70
2020-01-17 17:00:00 12.6 5 Oeste 16 Oeste 0 -- -- 66
2020-01-17 16:00:00 12.3 7 Oeste 18 Oeste 0 -- -- 72
2020-01-17 15:00:00 12.9 13 Oeste 21 Oeste 0 -- -- 66
2020-01-17 14:00:00 12.6 16 Noroeste 22 Oeste 0 -- -- 75
2020-01-17 13:00:00 11.7 15 Oeste 22 Oeste 0 -- -- 86
2020-01-17 12:00:00 10.5 15 Sudoeste 22 Sudoeste 0 -- -- 100
2020-01-17 11:00:00 9.1 9 Sudoeste 15 Sur 0 -- -- 100
2020-01-17 10:00:00 8.1 10 Sur 12 Sur 0 -- -- 100
2020-01-17 09:00:00 7.1 9 Sur 14 Sur 0.2 -- -- 100
2020-01-17 08:00:00 6 10 Sur 12 Sur 0 -- -- 100
2020-01-17 07:00:00 6 8 Sur 13 Sur 0 -- -- 100
2020-01-17 06:00:00 6.3 7 Sur 10 Sur 0 -- -- 100
2020-01-17 05:00:00 6.9 6 Sur 14 Sudoeste 0 -- -- 100
2020-01-17 04:00:00 6.5 8 Sur 10 Sur 0.2 -- -- 100
2020-01-17 03:00:00 7.1 8 Sur 12 Sur 0 -- -- 100
2020-01-17 02:00:00 7.3 12 Sudoeste 12 Sudoeste 0 -- -- 100
2020-01-17 01:00:00 7.9 8 Sur 14 Sur 0 -- -- 99
2020-01-17 00:00:00 8.1 10 Sur 16 Sur 0 -- -- 99
2020-01-16 23:00:00 9 14 Sudoeste 33 Sudoeste 0 -- -- 97
2020-01-16 22:00:00 10.3 26 Sudoeste 45 Sudoeste 0 -- -- 95
2020-01-16 21:00:00 11.5 27 Sudoeste 40 Sur 0 -- -- 79
2020-01-16 20:00:00 11.9 31 Sur 41 Sur 0 -- -- 76
2020-01-16 19:00:00 12 27 Sur 42 Sur 0 -- -- 75
2020-01-16 18:00:00 11.9 25 Sur 40 Sudoeste 0 -- -- 75
2020-01-16 17:00:00 12.8 25 Sur 37 Sur 0 -- -- 71
2020-01-16 16:00:00 13.7 30 Sur 41 Sur 0 -- -- 72
2020-01-16 15:00:00 12.8 28 Sur 41 Sur 0 -- -- 77
2020-01-16 14:00:00 13.2 33 Sur 46 Sur 0 -- -- 75
2020-01-16 13:00:00 12.4 36 Sur 46 Sur 0 -- -- 83
2020-01-16 12:00:00 11.9 31 Sur 45 Sur 0 -- -- 84
2020-01-16 11:00:00 10.9 17 Sur 30 Sur 0 -- -- 91
2020-01-16 10:00:00 9.9 22 Sur 30 Sur 0 -- -- 95
2020-01-16 09:00:00 9.9 21 Sur 29 Sur 0 -- -- 95
2020-01-16 08:00:00 10.1 19 Sur 27 Sur 0 -- -- 95
2020-01-16 07:00:00 10.6 19 Sur 31 Sur 0 -- -- 95
2020-01-16 06:00:00 10.8 22 Sur 28 Sur 0 -- -- 97
2020-01-16 05:00:00 11 14 Sur 23 Sur 0 -- -- 97
2020-01-16 04:00:00 10.7 13 Sur 18 Sudeste 0 -- -- 98
2020-01-16 03:00:00 10.2 14 Sudeste 27 Sudeste 0 -- -- 98
2020-01-16 02:00:00 10.3 19 Sur 27 Sur 0 -- -- 98
2020-01-16 01:00:00 10.1 10 Sudeste 18 Sudeste 0 -- -- 96
2020-01-16 00:00:00 10.9 13 Sudeste 19 Sudeste 0 -- -- 95
2020-01-15 23:00:00 11.3 15 Sur 21 Sudeste 0 -- -- 95
2020-01-15 22:00:00 11.3 14 Sudeste 22 Sudeste 0 -- -- 94
2020-01-15 21:00:00 12 16 Sudeste 24 Sur 0 -- -- 92
2020-01-15 20:00:00 12.4 13 Sudeste 27 Sur 0 -- -- 90
2020-01-15 19:00:00 12.8 19 Sur 27 Sur 0 -- -- 89
2020-01-15 18:00:00 13.2 18 Sur 25 Sur 0 -- -- 88
2020-01-15 17:00:00 13.7 17 Sur 26 Sur 0 -- -- 88
2020-01-15 16:00:00 13.5 21 Sur 30 Sur 0 -- -- 89
2020-01-15 15:00:00 12.7 23 Sur 30 Sur 0.2 -- -- 93
2020-01-15 14:00:00 11.5 20 Sur 28 Sur 0 -- -- 97
2020-01-15 13:00:00 10 14 Sur 30 Sur 0.6 -- -- 98
2020-01-15 12:00:00 10.2 26 Sur 36 Sur 0.4 -- -- 95
2020-01-15 11:00:00 10.3 29 Sur 41 Sur 0.2 -- -- 91
2020-01-15 10:00:00 9.3 23 Sur 34 Sur 0 -- -- 92
2020-01-15 09:00:00 8.5 21 Sur 30 Sur 0 -- -- 93
2020-01-15 08:00:00 8.5 22 Sur 39 Sur 0.4 -- -- 93
2020-01-15 07:00:00 8.8 25 Sur 40 Sur 0 -- -- 87
2020-01-15 06:00:00 8.5 22 Sur 37 Sur 0 -- -- 86
2020-01-15 05:00:00 8 24 Sudeste 36 Sur 0 -- -- 86
2020-01-15 04:00:00 8.4 30 Sur 50 Sur 0 -- -- 85
2020-01-15 03:00:00 8.4 28 Sur 36 Sur 0 -- -- 89
2020-01-15 02:00:00 9 25 Sur 36 Sur 0 -- -- 88
2020-01-15 01:00:00 8.7 20 Sur 34 Sur 0 -- -- 91
2020-01-15 00:00:00 8.5 30 Sur 42 Sur 0 -- -- 92
2020-01-14 23:00:00 9.1 28 Sur 37 Sur 0 -- -- 91
2020-01-14 22:00:00 9.2 26 Sur 44 Sur 0 -- -- 90
2020-01-14 21:00:00 9.3 21 Sur 31 Sur 0 -- -- 90
2020-01-14 20:00:00 8.4 22 Sur 30 Sur 0 -- -- 95
2020-01-14 19:00:00 7.9 20 Sudeste 28 Sudeste 0 -- -- 97
2020-01-14 18:00:00 8.2 9 Sur 26 Sur 0.2 -- -- 96
2020-01-14 17:00:00 9.3 22 Sur 33 Sur 0 -- -- 83
2020-01-14 16:00:00 9.7 23 Sur 32 Sur 0 -- -- 75
2020-01-14 15:00:00 10.5 25 Sur 32 Sur 0 -- -- 69
2020-01-14 14:00:00 10.1 17 Sur 29 Sur 0 -- -- 72
2020-01-14 13:00:00 9 14 Sur 23 Sur 0 -- -- 77
2020-01-14 12:00:00 7.4 13 Sur 17 Sudeste 0 -- -- 82
2020-01-14 11:00:00 6.5 14 Sudeste 18 Sudeste 0 -- -- 84
2020-01-14 10:00:00 6 9 Sur 21 Sudeste 0 -- -- 86
2020-01-14 09:00:00 5.3 14 Sudeste 19 Sudeste 0 -- -- 87
2020-01-14 08:00:00 5.1 10 Sudeste 14 Sudeste 0 -- -- 88
2020-01-14 07:00:00 4.8 9 Sur 13 Sudeste 0 -- -- 89
2020-01-14 06:00:00 5.3 9 Sur 15 Sudeste 0 -- -- 85
2020-01-14 05:00:00 5.2 9 Sudeste 14 Sudeste 0 -- -- 85
2020-01-14 04:00:00 5.8 9 Sudeste 16 Sudeste 0 -- -- 82
2020-01-14 03:00:00 5 8 Sudeste 13 Sudeste 0 -- -- 84
2020-01-14 02:00:00 4.3 7 Sudeste 10 Sudeste 0 -- -- 85
2020-01-14 01:00:00 5 6 Sur 7 Sur 0 -- -- 84
2020-01-14 00:00:00 6.2 4 Oeste 9 Sudoeste 0 -- -- 80
2020-01-13 23:00:00 5.9 9 Oeste 10 Oeste 0 -- -- 81
2020-01-13 22:00:00 5.2 6 Sur 11 Sur 0 -- -- 83
2020-01-13 21:00:00 5.7 7 Sur 10 Sudeste 0 -- -- 79
2020-01-13 20:00:00 6.5 7 Sur 12 Sur 0 -- -- 74
2020-01-13 19:00:00 7.1 8 Sur 14 Sur 0 -- -- 74
2020-01-13 18:00:00 9.7 0 Calma 8 Noroeste 0 -- -- 62
2020-01-13 17:00:00 11.2 4 Oeste 13 Sur 0 -- -- 57
2020-01-13 16:00:00 11.4 7 Sudoeste 13 Sudoeste 0 -- -- 58
2020-01-13 15:00:00 10.7 6 Oeste 12 Sudoeste 0 -- -- 63
2020-01-13 14:00:00 10.4 6 Sur 12 Sudoeste 0 -- -- 68
2020-01-13 13:00:00 9.4 4 Sudoeste 9 Sur 0 -- -- 68
2020-01-13 12:00:00 7.6 3 Noroeste 9 Sudeste 0 -- -- 78
2020-01-13 11:00:00 6.2 4 Sudeste 8 Este 0 -- -- 81
2020-01-13 10:00:00 3.9 5 Este 11 Este 0 -- -- 83
2020-01-13 09:00:00 3.8 8 Sudeste 12 Sudeste 0 -- -- 82
2020-01-13 08:00:00 4 8 Sudeste 13 Sudeste 0 -- -- 80
2020-01-13 07:00:00 4.2 8 Sudeste 12 Este 0 -- -- 77
2020-01-13 06:00:00 4.4 8 Este 13 Sudeste 0 -- -- 75
2020-01-13 05:00:00 4.9 10 Este 14 Sudeste 0 -- -- 70
2020-01-13 04:00:00 5.8 6 Sudeste 12 Sudeste 0 -- -- 69
2020-01-13 03:00:00 6 7 Sudeste 13 Sudeste 0 -- -- 67
2020-01-13 02:00:00 6 8 Sudeste 12 Sudeste 0 -- -- 70
2020-01-13 01:00:00 5.8 8 Sudeste 10 Sudeste 0 -- -- 66
2020-01-13 00:00:00 7.3 4 Sur 5 Sur 0 -- -- 61
2020-01-12 23:00:00 8 4 Sudeste 5 Sudeste 0 -- -- 65
2020-01-12 22:00:00 7.9 2 Sur 4 Nordeste 0 -- -- 63
2020-01-12 21:00:00 8.8 3 Nordeste 5 Nordeste 0 -- -- 60
2020-01-12 20:00:00 8.3 4 Norte 5 Norte 0 -- -- 64
2020-01-12 19:00:00 9.1 0 Calma 4 Noroeste 0 -- -- 62
2020-01-12 18:00:00 11.6 2 Oeste 5 Oeste 0 -- -- 59
2020-01-12 17:00:00 12.1 4 Sudoeste 8 Sudoeste 0 -- -- 49
2020-01-12 16:00:00 12 5 Sudoeste 12 Sudoeste 0 -- -- 56
2020-01-12 15:00:00 11.5 5 Oeste 10 Sudoeste 0 -- -- 59
2020-01-12 14:00:00 11.2 4 Sudoeste 8 Sur 0 -- -- 60
2020-01-12 13:00:00 8.9 3 Norte 9 Norte 0 -- -- 69
2020-01-12 12:00:00 6.2 5 Norte 9 Noroeste 0 -- -- 81
2020-01-12 11:00:00 5.5 3 Sur 8 Sur 0 -- -- 78
2020-01-12 10:00:00 5.2 4 Sur 6 Sur 0 -- -- 74
2020-01-12 09:00:00 3.1 0 Calma 3 Noroeste 0 -- -- 82
2020-01-12 08:00:00 2.5 2 Norte 5 Noroeste 0 -- -- 84
2020-01-12 07:00:00 3.6 0 Calma 3 Noroeste 0 -- -- 76
2020-01-12 06:00:00 4.2 4 Sudeste 10 Este 0 -- -- 75
2020-01-12 05:00:00 3.9 10 Este 15 Nordeste 0 -- -- 76
2020-01-12 04:00:00 3.4 11 Nordeste 12 Nordeste 0 -- -- 78
2020-01-12 03:00:00 4.7 5 Nordeste 7 Este 0 -- -- 70
2020-01-12 02:00:00 6.6 6 Este 8 Este 0 -- -- 63
2020-01-12 01:00:00 6.3 8 Este 10 Este 0 -- -- 63
2020-01-12 00:00:00 7.2 5 Este 7 Este 0 -- -- 59
2020-01-11 23:00:00 7 5 Este 9 Este 0 -- -- 64
2020-01-11 22:00:00 6.9 7 Nordeste 9 Nordeste 0 -- -- 64
2020-01-11 21:00:00 6.6 7 Norte 9 Norte 0 -- -- 66
2020-01-11 20:00:00 7.7 6 Nordeste 12 Nordeste 0 -- -- 63
2020-01-11 19:00:00 7.5 10 Nordeste 12 Nordeste 0 -- -- 65
2020-01-11 18:00:00 9.2 7 Nordeste 11 Nordeste 0 -- -- 59
2020-01-11 17:00:00 10.6 9 Nordeste 15 Nordeste 0 -- -- 58
2020-01-11 16:00:00 11.3 9 Nordeste 23 Este 0 -- -- 59
2020-01-11 15:00:00 11 12 Este 22 Este 0 -- -- 59
2020-01-11 14:00:00 10.5 14 Este 22 Este 0 -- -- 57
2020-01-11 13:00:00 9.2 17 Nordeste 26 Este 0 -- -- 65
2020-01-11 12:00:00 8.2 19 Nordeste 31 Nordeste 0 -- -- 68
2020-01-11 11:00:00 6.6 21 Nordeste 28 Nordeste 0 -- -- 72
2020-01-11 10:00:00 4.8 17 Nordeste 23 Nordeste 0 -- -- 79
2020-01-11 09:00:00 2.8 18 Nordeste 20 Nordeste 0 -- -- 84
2020-01-11 08:00:00 2.9 16 Nordeste 18 Nordeste 0 -- -- 84
2020-01-11 07:00:00 2.4 13 Nordeste 16 Nordeste 0 -- -- 86
2020-01-11 06:00:00 3.3 14 Nordeste 16 Nordeste 0 -- -- 82
2020-01-11 05:00:00 3.8 14 Nordeste 18 Nordeste 0 -- -- 80
2020-01-11 04:00:00 4.1 14 Nordeste 18 Nordeste 0 -- -- 78
2020-01-11 03:00:00 4.1 16 Nordeste 18 Nordeste 0 -- -- 79
2020-01-11 02:00:00 4 16 Nordeste 19 Nordeste 0 -- -- 81
2020-01-11 01:00:00 5.2 17 Nordeste 23 Nordeste 0 -- -- 76
2020-01-11 00:00:00 5.1 17 Nordeste 21 Nordeste 0 -- -- 78
2020-01-10 23:00:00 5.4 17 Nordeste 23 Nordeste 0 -- -- 76
2020-01-10 22:00:00 5.9 17 Nordeste 24 Nordeste 0 -- -- 74
2020-01-10 21:00:00 6.3 17 Norte 24 Nordeste 0 -- -- 72
2020-01-10 20:00:00 7.7 17 Nordeste 25 Nordeste 0 -- -- 65
2020-01-10 19:00:00 7.8 13 Nordeste 19 Nordeste 0 -- -- 65
2020-01-10 18:00:00 9.6 10 Norte 21 Nordeste 0 -- -- 63
2020-01-10 17:00:00 11.3 15 Norte 24 Norte 0 -- -- 57
2020-01-10 16:00:00 11.7 11 Nordeste 20 Nordeste 0 -- -- 57
2020-01-10 15:00:00 11.6 12 Nordeste 24 Nordeste 0 -- -- 60
2020-01-10 14:00:00 11.1 19 Nordeste 31 Este 0 -- -- 64
2020-01-10 13:00:00 10.3 21 Nordeste 32 Nordeste 0 -- -- 63
2020-01-10 12:00:00 9 21 Nordeste 37 Nordeste 0 -- -- 65
2020-01-10 11:00:00 7.1 19 Nordeste 37 Norte 0 -- -- 75
2020-01-10 10:00:00 5.6 24 Norte 40 Norte 0 -- -- 80
2020-01-10 09:00:00 3.9 22 Norte 35 Norte 0 -- -- 86
2020-01-10 08:00:00 4.5 23 Norte 32 Norte 0 -- -- 82
2020-01-10 07:00:00 5.1 24 Norte 37 Norte 0 -- -- 79
2020-01-10 06:00:00 3.7 15 Norte 30 Norte 0 -- -- 84
2020-01-10 05:00:00 3.7 23 Norte 27 Norte 0 -- -- 90
2020-01-10 04:00:00 3.8 16 Noroeste 18 Noroeste 0 -- -- 89
2020-01-10 03:00:00 5 9 Noroeste 22 Norte 0 -- -- 86
2020-01-10 02:00:00 5.5 19 Noroeste 29 Noroeste 0 -- -- 89
2020-01-10 01:00:00 6.4 19 Norte 27 Noroeste 0 -- -- 88
2020-01-10 00:00:00 6.5 17 Noroeste 20 Noroeste 0 -- -- 94
2020-01-09 23:00:00 7.6 17 Noroeste 22 Noroeste 0 -- -- 93
2020-01-09 22:00:00 8.7 15 Noroeste 27 Oeste 0 -- -- 91
2020-01-09 21:00:00 9.9 14 Oeste 19 Oeste 0 -- -- 94
2020-01-09 20:00:00 11 7 Oeste 12 Oeste 0 -- -- 85
2020-01-09 19:00:00 10.6 6 Sur 9 Sur 0 -- -- 78
2020-01-09 18:00:00 11.7 6 Sudoeste 11 Sudoeste 0 -- -- 76
2020-01-09 17:00:00 12.5 8 Sudoeste 13 Sudoeste 0 -- -- 73
2020-01-09 16:00:00 12.7 8 Sudoeste 11 Sudoeste 0 -- -- 75
2020-01-09 15:00:00 12.2 5 Oeste 14 Oeste 0 -- -- 77
2020-01-09 14:00:00 12 8 Oeste 10 Oeste 0 -- -- 79
2020-01-09 13:00:00 11.2 7 Este 13 Nordeste 0 -- -- 73
2020-01-09 12:00:00 10.5 8 Nordeste 22 Este 0 -- -- 77
2020-01-09 11:00:00 7.6 11 Este 21 Este 0 -- -- 87
2020-01-09 10:00:00 3.9 10 Norte 13 Nordeste 0 -- -- 100
2020-01-09 09:00:00 1.8 11 Norte 16 Nordeste 0 -- -- 99
2020-01-09 08:00:00 1.2 11 Norte 16 Noroeste 0 -- -- 97
2020-01-09 07:00:00 5.7 5 Norte 9 Este 0 -- -- 86
2020-01-09 06:00:00 5.6 4 Este 10 Nordeste 0 -- -- 95
2020-01-09 05:00:00 3.8 8 Norte 12 Noroeste 0 -- -- 99
2020-01-09 04:00:00 4.8 3 Noroeste 9 Este 0 -- -- 92
2020-01-09 03:00:00 5.8 6 Este 14 Nordeste 0 -- -- 94
2020-01-09 02:00:00 5.7 14 Nordeste 17 Nordeste 0 -- -- 94
2020-01-09 01:00:00 5.6 15 Norte 17 Norte 0 -- -- 94
2020-01-09 00:00:00 6.4 12 Nordeste 12 Nordeste 0 -- -- 90
2020-01-08 23:00:00 7.8 6 Norte 7 Norte 0 -- -- 84
2020-01-08 22:00:00 8.2 2 Noroeste 3 Noroeste 0 -- -- 88
2020-01-08 21:00:00 8.3 0 Calma 3 Sudoeste 0 -- -- 89
2020-01-08 20:00:00 8.1 2 Sudoeste 4 Oeste 0 -- -- 88
2020-01-08 19:00:00 9.1 0 Calma 3 Noroeste 0 -- -- 86
2020-01-08 18:00:00 9.9 2 Norte 8 Noroeste 0 -- -- 85
2020-01-08 17:00:00 11.2 6 Noroeste 9 Norte 0 -- -- 82
2020-01-08 16:00:00 11.6 6 Norte 10 Noroeste 0 -- -- 80
2020-01-08 15:00:00 11.5 5 Nordeste 12 Nordeste 0 -- -- 72
2020-01-08 14:00:00 10.7 6 Norte 12 Noroeste 0 -- -- 82
2020-01-08 13:00:00 10 3 Sur 7 Sudeste 0 -- -- 84
2020-01-08 12:00:00 8.4 4 Sudeste 10 Este 0 -- -- 87
2020-01-08 11:00:00 5.8 5 Este 13 Nordeste 0 -- -- 92
2020-01-08 10:00:00 4.4 7 Este 13 Este 0 -- -- 97
2020-01-08 09:00:00 2.7 12 Este 13 Este 0 -- -- 96
2020-01-08 08:00:00 2.1 9 Norte 10 Norte 0 -- -- 89
2020-01-08 07:00:00 4 2 Noroeste 4 Noroeste 0 -- -- 86
2020-01-08 06:00:00 4.5 2 Noroeste 5 Noroeste 0 -- -- 82
2020-01-08 05:00:00 5.3 3 Noroeste 5 Noroeste 0 -- -- 77
2020-01-08 04:00:00 6.3 3 Norte 5 Noroeste 0 -- -- 72
2020-01-08 03:00:00 6.3 2 Norte 9 Noroeste 0 -- -- 83
2020-01-08 02:00:00 6.7 8 Noroeste 10 Noroeste 0 -- -- 84
2020-01-08 01:00:00 8.1 5 Oeste 7 Sudoeste 0 -- -- 78
2020-01-08 00:00:00 8.8 3 Sudoeste 4 Sur 0 -- -- 76
2020-01-07 23:00:00 8.8 3 Oeste 7 Oeste 0 -- -- 74
2020-01-07 22:00:00 8.6 5 Oeste 7 Sudoeste 0 -- -- 79
2020-01-07 21:00:00 8.8 6 Oeste 7 Oeste 0 -- -- 78
2020-01-07 20:00:00 9.4 4 Noroeste 7 Noroeste 0 -- -- 75
2020-01-07 19:00:00 9.3 7 Noroeste 8 Noroeste 0 -- -- 79
2020-01-07 18:00:00 10.6 7 Noroeste 8 Noroeste 0 -- -- 81
2020-01-07 17:00:00 12.7 5 Noroeste 10 Norte 0 -- -- 79
2020-01-07 16:00:00 12.9 6 Noroeste 10 Norte 0 -- -- 74
2020-01-07 15:00:00 12.7 6 Norte 9 Este 0 -- -- 70
2020-01-07 14:00:00 12.5 4 Este 10 Sudeste 0 -- -- 73
2020-01-07 13:00:00 11 6 Este 11 Sudeste 0 -- -- 77
2020-01-07 12:00:00 9.4 5 Nordeste 9 Nordeste 0 -- -- 85
2020-01-07 11:00:00 6.5 4 Norte 15 Este 0 -- -- 93
2020-01-07 10:00:00 5.4 11 Este 16 Este 0 -- -- 94
2020-01-07 09:00:00 4.4 10 Nordeste 12 Nordeste 0 -- -- 91
2020-01-07 08:00:00 4.7 9 Este 12 Este 0 -- -- 94
2020-01-07 07:00:00 3.5 12 Nordeste 14 Nordeste 0 -- -- 96
2020-01-07 06:00:00 5.1 8 Este 10 Este 0 -- -- 93
2020-01-07 05:00:00 4.9 11 Nordeste 14 Nordeste 0 -- -- 92
2020-01-07 04:00:00 4.8 9 Nordeste 12 Norte 0 -- -- 93
2020-01-07 03:00:00 6.7 3 Nordeste -- -- 0 -- -- 86
2020-01-07 02:00:00 7 3 Norte 6 Noroeste 0 -- -- 85
2020-01-07 01:00:00 7.4 5 Noroeste -- -- 0 -- -- 84
2020-01-07 00:00:00 7.5 4 Noroeste -- -- 0 -- -- 84
2020-01-06 23:00:00 8.1 2 Norte 9 Noroeste 0 -- -- 82
2020-01-06 22:00:00 8.3 7 Norte 8 Norte 0 -- -- 77
2020-01-06 21:00:00 9 4 Norte 6 Norte 0 -- -- 75
2020-01-06 20:00:00 8.3 6 Norte 12 Norte 0 -- -- 75
2020-01-06 19:00:00 8 10 Noroeste 12 Noroeste 0 -- -- 82
2020-01-06 18:00:00 9.8 5 Norte 11 Norte 0 -- -- 77
2020-01-06 17:00:00 11.1 4 Norte 9 Nordeste 0 -- -- 75
2020-01-06 16:00:00 11.1 8 Norte 16 Oeste 0 -- -- 74
2020-01-06 15:00:00 11.4 12 Noroeste 16 Oeste 0 -- -- 78
2020-01-06 14:00:00 11.9 4 Este 10 Sudeste 0 -- -- 68
2020-01-06 13:00:00 10 6 Este 13 Este 0 -- -- 78
2020-01-06 12:00:00 7.8 7 Este 16 Este 0 -- -- 84
2020-01-06 11:00:00 6.3 10 Nordeste 13 Nordeste 0 -- -- 89
2020-01-06 10:00:00 4.3 10 Nordeste 13 Nordeste 0 -- -- 96